Frankford, Canada
Current Conditions -  °F | °C
As of 8:00 PM on Wednesday 22 Oct 2014 (Local Time) from CYTR Reporting Station
Broken Clouds Broken Clouds  
Wind Chill: 44°   Ceiling: 5700
Heat Index: 48°   Visibility: 15mi
Dew Point: 46°   Wind: 9mph
Humidity: 93%   Direction: 10°N
Pressure: 30.22"   Gusts: NA
Location:  44.2°N, 77.6°W
Report Text: CYTR 230000Z 01008KT 15SM BKN057 09/08 A3022 RMK SC7 SLP237
Loading
Personal Weather Stations






























Interactive Weather Map
Tropical Storm Tracking
New forecast layout! Learn more

10-Day Weather Forecast

Advertisements
Track Severe Weather on mobile